sensor_id;sensor_type;location;lat;lon;timestamp;pressure;altitude;pressure_sealevel;temperature
14023;BMP180;7086;48.116;11.580;2022-10-28T00:06:59;96206.00;;;16.60
14023;BMP180;7086;48.116;11.580;2022-10-28T00:09:58;96236.00;;;16.70
14023;BMP180;7086;48.116;11.580;2022-10-28T00:12:48;96211.00;;;16.70
14023;BMP180;7086;48.116;11.580;2022-10-28T00:15:32;96247.00;;;16.50
14023;BMP180;7086;48.116;11.580;2022-10-28T00:19:11;96205.00;;;16.70
14023;BMP180;7086;48.116;11.580;2022-10-28T00:40:52;96183.00;;;16.50
14023;BMP180;7086;48.116;11.580;2022-10-28T00:51:15;96223.00;;;16.50
14023;BMP180;7086;48.116;11.580;2022-10-28T01:09:40;96080.00;;;16.30
14023;BMP180;7086;48.116;11.580;2022-10-28T01:14:21;96095.00;;;16.30
14023;BMP180;7086;48.116;11.580;2022-10-28T01:16:55;96202.00;;;16.20
14023;BMP180;7086;48.116;11.580;2022-10-28T02:33:27;96060.00;;;15.90
14023;BMP180;7086;48.116;11.580;2022-10-28T02:36:59;96158.00;;;15.80
14023;BMP180;7086;48.116;11.580;2022-10-28T02:40:20;96197.00;;;15.80
14023;BMP180;7086;48.116;11.580;2022-10-28T03:01:29;96129.00;;;15.80
14023;BMP180;7086;48.116;11.580;2022-10-28T03:03:58;96170.00;;;15.80
14023;BMP180;7086;48.116;11.580;2022-10-28T03:06:54;96178.00;;;15.70
14023;BMP180;7086;48.116;11.580;2022-10-28T03:13:36;96157.00;;;15.60
14023;BMP180;7086;48.116;11.580;2022-10-28T03:24:25;96166.00;;;15.70
14023;BMP180;7086;48.116;11.580;2022-10-28T03:38:13;96065.00;;;15.60
14023;BMP180;7086;48.116;11.580;2022-10-28T03:45:15;96094.00;;;15.60
14023;BMP180;7086;48.116;11.580;2022-10-28T03:51:39;96075.00;;;15.50
14023;BMP180;7086;48.116;11.580;2022-10-28T03:55:06;96100.00;;;15.70
14023;BMP180;7086;48.116;11.580;2022-10-28T03:57:34;96166.00;;;15.70
14023;BMP180;7086;48.116;11.580;2022-10-28T04:00:02;96178.00;;;15.70
14023;BMP180;7086;48.116;11.580;2022-10-28T04:02:30;96168.00;;;15.60
14023;BMP180;7086;48.116;11.580;2022-10-28T04:04:58;96162.00;;;15.60
14023;BMP180;7086;48.116;11.580;2022-10-28T04:07:26;96178.00;;;15.60
14023;BMP180;7086;48.116;11.580;2022-10-28T04:09:55;96146.00;;;15.20
14023;BMP180;7086;48.116;11.580;2022-10-28T04:12:23;96167.00;;;15.60
14023;BMP180;7086;48.116;11.580;2022-10-28T04:14:51;96164.00;;;15.60
14023;BMP180;7086;48.116;11.580;2022-10-28T04:17:19;96175.00;;;15.60
14023;BMP180;7086;48.116;11.580;2022-10-28T04:19:47;96169.00;;;15.60
14023;BMP180;7086;48.116;11.580;2022-10-28T04:22:15;96169.00;;;15.60
14023;BMP180;7086;48.116;11.580;2022-10-28T04:24:43;96168.00;;;15.60
14023;BMP180;7086;48.116;11.580;2022-10-28T04:27:13;96164.00;;;15.60
14023;BMP180;7086;48.116;11.580;2022-10-28T04:29:42;96057.00;;;15.60
14023;BMP180;7086;48.116;11.580;2022-10-28T04:32:09;96169.00;;;15.60
14023;BMP180;7086;48.116;11.580;2022-10-28T04:34:37;96168.00;;;15.60
14023;BMP180;7086;48.116;11.580;2022-10-28T04:37:05;96139.00;;;15.60
14023;BMP180;7086;48.116;11.580;2022-10-28T04:39:33;96167.00;;;15.60
14023;BMP180;7086;48.116;11.580;2022-10-28T04:42:01;96161.00;;;15.60
14023;BMP180;7086;48.116;11.580;2022-10-28T04:44:30;96169.00;;;15.60
14023;BMP180;7086;48.116;11.580;2022-10-28T04:46:58;96168.00;;;15.60
14023;BMP180;7086;48.116;11.580;2022-10-28T04:49:26;96197.00;;;15.60
14023;BMP180;7086;48.116;11.580;2022-10-28T04:51:54;96169.00;;;15.60
14023;BMP180;7086;48.116;11.580;2022-10-28T04:54:22;96172.00;;;15.70
14023;BMP180;7086;48.116;11.580;2022-10-28T04:56:50;96163.00;;;15.70
14023;BMP180;7086;48.116;11.580;2022-10-28T04:59:17;96170.00;;;15.70
14023;BMP180;7086;48.116;11.580;2022-10-28T05:01:46;96160.00;;;15.70
14023;BMP180;7086;48.116;11.580;2022-10-28T05:04:28;96164.00;;;15.70
14023;BMP180;7086;48.116;11.580;2022-10-28T05:06:56;96154.00;;;15.60
14023;BMP180;7086;48.116;11.580;2022-10-28T05:09:24;96160.00;;;15.60
14023;BMP180;7086;48.116;11.580;2022-10-28T05:11:52;96159.00;;;15.60
14023;BMP180;7086;48.116;11.580;2022-10-28T05:14:20;96109.00;;;15.30
14023;BMP180;7086;48.116;11.580;2022-10-28T05:16:49;96086.00;;;15.30
14023;BMP180;7086;48.116;11.580;2022-10-28T05:19:17;96057.00;;;15.30
14023;BMP180;7086;48.116;11.580;2022-10-28T05:21:44;96157.00;;;15.60
14023;BMP180;7086;48.116;11.580;2022-10-28T05:24:12;96151.00;;;15.60
14023;BMP180;7086;48.116;11.580;2022-10-28T05:26:40;96154.00;;;15.60
14023;BMP180;7086;48.116;11.580;2022-10-28T05:29:08;96148.00;;;15.60
14023;BMP180;7086;48.116;11.580;2022-10-28T05:31:51;96181.00;;;15.60
14023;BMP180;7086;48.116;11.580;2022-10-28T05:34:20;96150.00;;;15.60
14023;BMP180;7086;48.116;11.580;2022-10-28T05:36:48;96151.00;;;15.60
14023;BMP180;7086;48.116;11.580;2022-10-28T05:39:17;96163.00;;;15.60
14023;BMP180;7086;48.116;11.580;2022-10-28T05:41:45;96152.00;;;15.60
14023;BMP180;7086;48.116;11.580;2022-10-28T05:44:26;96135.00;;;15.50
14023;BMP180;7086;48.116;11.580;2022-10-28T05:46:56;96183.00;;;15.10
14023;BMP180;7086;48.116;11.580;2022-10-28T05:49:37;96150.00;;;15.60
14023;BMP180;7086;48.116;11.580;2022-10-28T05:52:06;96155.00;;;15.60
14023;BMP180;7086;48.116;11.580;2022-10-28T05:54:34;96156.00;;;15.60
14023;BMP180;7086;48.116;11.580;2022-10-28T05:57:02;96152.00;;;15.60
14023;BMP180;7086;48.116;11.580;2022-10-28T05:59:30;96158.00;;;15.60
14023;BMP180;7086;48.116;11.580;2022-10-28T06:02:07;96070.00;;;15.60
14023;BMP180;7086;48.116;11.580;2022-10-28T06:04:36;96153.00;;;15.70
14023;BMP180;7086;48.116;11.580;2022-10-28T06:07:05;96157.00;;;15.70
14023;BMP180;7086;48.116;11.580;2022-10-28T06:09:34;96201.00;;;15.70
14023;BMP180;7086;48.116;11.580;2022-10-28T06:12:01;96158.00;;;15.70
14023;BMP180;7086;48.116;11.580;2022-10-28T06:14:30;96165.00;;;15.80
14023;BMP180;7086;48.116;11.580;2022-10-28T06:17:03;96191.00;;;15.80
14023;BMP180;7086;48.116;11.580;2022-10-28T06:19:31;96169.00;;;15.80
14023;BMP180;7086;48.116;11.580;2022-10-28T06:21:59;96194.00;;;16.00
14023;BMP180;7086;48.116;11.580;2022-10-28T06:24:41;96183.00;;;16.00
14023;BMP180;7086;48.116;11.580;2022-10-28T06:27:09;96188.00;;;16.10
14023;BMP180;7086;48.116;11.580;2022-10-28T06:29:50;96183.00;;;16.10
14023;BMP180;7086;48.116;11.580;2022-10-28T06:32:33;96084.00;;;16.20
14023;BMP180;7086;48.116;11.580;2022-10-28T06:35:15;96184.00;;;16.20
14023;BMP180;7086;48.116;11.580;2022-10-28T06:37:43;96176.00;;;16.30
14023;BMP180;7086;48.116;11.580;2022-10-28T06:40:11;96173.00;;;16.30
14023;BMP180;7086;48.116;11.580;2022-10-28T06:42:57;96167.00;;;16.10
14023;BMP180;7086;48.116;11.580;2022-10-28T06:45:25;96181.00;;;16.50
14023;BMP180;7086;48.116;11.580;2022-10-28T06:48:06;96078.00;;;16.60
14023;BMP180;7086;48.116;11.580;2022-10-28T06:50:35;96130.00;;;16.60
14023;BMP180;7086;48.116;11.580;2022-10-28T06:53:03;96159.00;;;16.70
14023;BMP180;7086;48.116;11.580;2022-10-28T06:55:52;96112.00;;;16.70
14023;BMP180;7086;48.116;11.580;2022-10-28T06:58:22;96177.00;;;16.90
14023;BMP180;7086;48.116;11.580;2022-10-28T07:00:50;96151.00;;;17.00
14023;BMP180;7086;48.116;11.580;2022-10-28T07:03:32;96229.00;;;17.00
14023;BMP180;7086;48.116;11.580;2022-10-28T07:06:00;96195.00;;;17.10
14023;BMP180;7086;48.116;11.580;2022-10-28T07:08:28;96198.00;;;17.20
14023;BMP180;7086;48.116;11.580;2022-10-28T07:10:59;96081.00;;;17.30
14023;BMP180;7086;48.116;11.580;2022-10-28T07:13:27;96196.00;;;17.40
14023;BMP180;7086;48.116;11.580;2022-10-28T07:15:57;96203.00;;;17.50
14023;BMP180;7086;48.116;11.580;2022-10-28T07:18:28;96185.00;;;17.60
14023;BMP180;7086;48.116;11.580;2022-10-28T07:21:00;96138.00;;;17.60
14023;BMP180;7086;48.116;11.580;2022-10-28T07:23:28;96208.00;;;17.90
14023;BMP180;7086;48.116;11.580;2022-10-28T07:26:10;96208.00;;;18.00
14023;BMP180;7086;48.116;11.580;2022-10-28T07:28:38;96223.00;;;18.20
14023;BMP180;7086;48.116;11.580;2022-10-28T07:31:08;96219.00;;;18.30
14023;BMP180;7086;48.116;11.580;2022-10-28T07:33:40;96220.00;;;18.50
14023;BMP180;7086;48.116;11.580;2022-10-28T07:38:51;96186.00;;;18.30
14023;BMP180;7086;48.116;11.580;2022-10-28T07:41:21;96222.00;;;18.90
14023;BMP180;7086;48.116;11.580;2022-10-28T07:43:51;96259.00;;;18.80
14023;BMP180;7086;48.116;11.580;2022-10-28T07:46:21;96165.00;;;19.20
14023;BMP180;7086;48.116;11.580;2022-10-28T07:48:51;96220.00;;;19.50
14023;BMP180;7086;48.116;11.580;2022-10-28T07:51:19;96223.00;;;19.60
14023;BMP180;7086;48.116;11.580;2022-10-28T07:53:49;96221.00;;;20.30
14023;BMP180;7086;48.116;11.580;2022-10-28T07:56:23;96191.00;;;20.60
14023;BMP180;7086;48.116;11.580;2022-10-28T07:58:52;96221.00;;;21.60
14023;BMP180;7086;48.116;11.580;2022-10-28T08:01:21;96202.00;;;22.10
14023;BMP180;7086;48.116;11.580;2022-10-28T08:03:49;96231.00;;;23.10
14023;BMP180;7086;48.116;11.580;2022-10-28T08:06:20;96180.00;;;23.90
14023;BMP180;7086;48.116;11.580;2022-10-28T08:09:02;96177.00;;;24.80
14023;BMP180;7086;48.116;11.580;2022-10-28T08:11:33;96229.00;;;25.60
14023;BMP180;7086;48.116;11.580;2022-10-28T08:14:04;96231.00;;;26.40
14023;BMP180;7086;48.116;11.580;2022-10-28T08:16:38;96258.00;;;27.10
14023;BMP180;7086;48.116;11.580;2022-10-28T08:19:19;96232.00;;;27.80
14023;BMP180;7086;48.116;11.580;2022-10-28T08:21:48;96232.00;;;28.50
14023;BMP180;7086;48.116;11.580;2022-10-28T08:24:18;96209.00;;;29.20
14023;BMP180;7086;48.116;11.580;2022-10-28T08:27:04;96245.00;;;29.90
14023;BMP180;7086;48.116;11.580;2022-10-28T08:29:45;96228.00;;;30.50
14023;BMP180;7086;48.116;11.580;2022-10-28T08:32:13;96227.00;;;31.10
14023;BMP180;7086;48.116;11.580;2022-10-28T08:34:41;96230.00;;;31.40
14023;BMP180;7086;48.116;11.580;2022-10-28T08:37:11;96236.00;;;31.60
14023;BMP180;7086;48.116;11.580;2022-10-28T08:39:57;96248.00;;;31.60
14023;BMP180;7086;48.116;11.580;2022-10-28T08:42:38;96199.00;;;31.50
14023;BMP180;7086;48.116;11.580;2022-10-28T08:45:33;96250.00;;;30.90
14023;BMP180;7086;48.116;11.580;2022-10-28T08:48:20;96178.00;;;30.80
14023;BMP180;7086;48.116;11.580;2022-10-28T08:50:58;96201.00;;;30.10
14023;BMP180;7086;48.116;11.580;2022-10-28T08:53:31;96205.00;;;29.90
14023;BMP180;7086;48.116;11.580;2022-10-28T08:56:15;96165.00;;;29.50
14023;BMP180;7086;48.116;11.580;2022-10-28T08:58:48;96227.00;;;29.30
14023;BMP180;7086;48.116;11.580;2022-10-28T09:01:33;96199.00;;;28.80
14023;BMP180;7086;48.116;11.580;2022-10-28T09:04:14;96176.00;;;28.50
14023;BMP180;7086;48.116;11.580;2022-10-28T09:06:44;96230.00;;;28.20
14023;BMP180;7086;48.116;11.580;2022-10-28T09:09:19;96215.00;;;28.10
14023;BMP180;7086;48.116;11.580;2022-10-28T09:12:16;96239.00;;;28.00
14023;BMP180;7086;48.116;11.580;2022-10-28T09:15:25;96250.00;;;27.80
14023;BMP180;7086;48.116;11.580;2022-10-28T09:18:17;96236.00;;;27.90
14023;BMP180;7086;48.116;11.580;2022-10-28T09:20:57;96264.00;;;27.80
14023;BMP180;7086;48.116;11.580;2022-10-28T09:23:32;96252.00;;;27.80
14023;BMP180;7086;48.116;11.580;2022-10-28T09:26:12;96187.00;;;27.90
14023;BMP180;7086;48.116;11.580;2022-10-28T09:29:08;96243.00;;;28.20
14023;BMP180;7086;48.116;11.580;2022-10-28T09:32:00;96230.00;;;28.30
14023;BMP180;7086;48.116;11.580;2022-10-28T09:34:36;96241.00;;;28.40
14023;BMP180;7086;48.116;11.580;2022-10-28T09:37:14;96185.00;;;28.50
14023;BMP180;7086;48.116;11.580;2022-10-28T09:39:48;96192.00;;;28.50
14023;BMP180;7086;48.116;11.580;2022-10-28T09:42:28;96235.00;;;28.30
14023;BMP180;7086;48.116;11.580;2022-10-28T09:45:10;96198.00;;;28.10
14023;BMP180;7086;48.116;11.580;2022-10-28T09:47:43;96264.00;;;28.00
14023;BMP180;7086;48.116;11.580;2022-10-28T09:50:22;96240.00;;;28.30
14023;BMP180;7086;48.116;11.580;2022-10-28T09:53:13;96199.00;;;28.80
14023;BMP180;7086;48.116;11.580;2022-10-28T09:55:49;96248.00;;;29.20
14023;BMP180;7086;48.116;11.580;2022-10-28T09:58:18;96243.00;;;29.60
14023;BMP180;7086;48.116;11.580;2022-10-28T10:00:50;96186.00;;;29.80
14023;BMP180;7086;48.116;11.580;2022-10-28T10:03:19;96234.00;;;30.20
14023;BMP180;7086;48.116;11.580;2022-10-28T10:06:10;96236.00;;;30.60
14023;BMP180;7086;48.116;11.580;2022-10-28T10:08:39;96236.00;;;31.10
14023;BMP180;7086;48.116;11.580;2022-10-28T10:11:19;96220.00;;;31.60
14023;BMP180;7086;48.116;11.580;2022-10-28T10:13:53;96232.00;;;32.00
14023;BMP180;7086;48.116;11.580;2022-10-28T10:16:36;96191.00;;;32.30
14023;BMP180;7086;48.116;11.580;2022-10-28T10:19:10;96247.00;;;32.90
14023;BMP180;7086;48.116;11.580;2022-10-28T10:21:48;96203.00;;;33.30
14023;BMP180;7086;48.116;11.580;2022-10-28T10:24:30;96236.00;;;33.80
14023;BMP180;7086;48.116;11.580;2022-10-28T10:27:12;96223.00;;;34.20
14023;BMP180;7086;48.116;11.580;2022-10-28T10:29:44;96210.00;;;34.40
14023;BMP180;7086;48.116;11.580;2022-10-28T10:32:21;96242.00;;;34.30
14023;BMP180;7086;48.116;11.580;2022-10-28T10:35:00;96229.00;;;34.00
14023;BMP180;7086;48.116;11.580;2022-10-28T10:37:33;96168.00;;;33.50
14023;BMP180;7086;48.116;11.580;2022-10-28T10:40:16;96241.00;;;33.10
14023;BMP180;7086;48.116;11.580;2022-10-28T10:42:47;96211.00;;;32.90
14023;BMP180;7086;48.116;11.580;2022-10-28T10:45:25;96200.00;;;32.60
14023;BMP180;7086;48.116;11.580;2022-10-28T11:54:38;96116.00;;;31.90
14023;BMP180;7086;48.116;11.580;2022-10-28T11:58:04;96160.00;;;31.50
14023;BMP180;7086;48.116;11.580;2022-10-28T12:14:31;96164.00;;;30.00
14023;BMP180;7086;48.116;11.580;2022-10-28T12:17:40;96156.00;;;29.80
14023;BMP180;7086;48.116;11.580;2022-10-28T12:20:44;96143.00;;;29.60
14023;BMP180;7086;48.116;11.580;2022-10-28T12:27:14;96100.00;;;29.40
14023;BMP180;7086;48.116;11.580;2022-10-28T12:41:10;96150.00;;;29.10
14023;BMP180;7086;48.116;11.580;2022-10-28T12:44:24;96126.00;;;29.40
14023;BMP180;7086;48.116;11.580;2022-10-28T12:47:05;96121.00;;;29.40
14023;BMP180;7086;48.116;11.580;2022-10-28T12:50:27;96075.00;;;29.50
14023;BMP180;7086;48.116;11.580;2022-10-28T12:53:45;96050.00;;;29.50
14023;BMP180;7086;48.116;11.580;2022-10-28T12:59:58;96095.00;;;29.70
14023;BMP180;7086;48.116;11.580;2022-10-28T13:02:39;96083.00;;;29.70
14023;BMP180;7086;48.116;11.580;2022-10-28T13:05:19;96122.00;;;29.80
14023;BMP180;7086;48.116;11.580;2022-10-28T13:11:46;96131.00;;;29.90
14023;BMP180;7086;48.116;11.580;2022-10-28T13:17:22;96124.00;;;29.70
14023;BMP180;7086;48.116;11.580;2022-10-28T13:20:21;96139.00;;;29.90
14023;BMP180;7086;48.116;11.580;2022-10-28T13:23:04;96148.00;;;29.60
14023;BMP180;7086;48.116;11.580;2022-10-28T13:25:55;96052.00;;;29.70
14023;BMP180;7086;48.116;11.580;2022-10-28T13:28:46;96135.00;;;29.80
14023;BMP180;7086;48.116;11.580;2022-10-28T13:31:41;96102.00;;;29.60
14023;BMP180;7086;48.116;11.580;2022-10-28T13:34:21;96137.00;;;29.40
14023;BMP180;7086;48.116;11.580;2022-10-28T13:37:03;96134.00;;;29.60
14023;BMP180;7086;48.116;11.580;2022-10-28T13:42:43;96138.00;;;29.60
14023;BMP180;7086;48.116;11.580;2022-10-28T13:48:47;96045.00;;;29.50
14023;BMP180;7086;48.116;11.580;2022-10-28T13:51:43;96061.00;;;29.50
14023;BMP180;7086;48.116;11.580;2022-10-28T13:54:29;96076.00;;;29.50
14023;BMP180;7086;48.116;11.580;2022-10-28T13:57:12;96047.00;;;29.40
14023;BMP180;7086;48.116;11.580;2022-10-28T13:59:51;96068.00;;;29.40
14023;BMP180;7086;48.116;11.580;2022-10-28T14:02:34;96096.00;;;29.40
14023;BMP180;7086;48.116;11.580;2022-10-28T14:05:08;96087.00;;;29.40
14023;BMP180;7086;48.116;11.580;2022-10-28T14:07:50;96088.00;;;29.40
14023;BMP180;7086;48.116;11.580;2022-10-28T14:10:23;96034.00;;;29.30
14023;BMP180;7086;48.116;11.580;2022-10-28T14:12:56;96101.00;;;29.30
14023;BMP180;7086;48.116;11.580;2022-10-28T14:15:28;96135.00;;;29.20
14023;BMP180;7086;48.116;11.580;2022-10-28T14:18:01;96119.00;;;29.20
14023;BMP180;7086;48.116;11.580;2022-10-28T14:20:36;96090.00;;;29.10
14023;BMP180;7086;48.116;11.580;2022-10-28T14:24:07;96124.00;;;29.00
14023;BMP180;7086;48.116;11.580;2022-10-28T14:27:37;96129.00;;;28.90
14023;BMP180;7086;48.116;11.580;2022-10-28T14:30:30;96092.00;;;28.80
14023;BMP180;7086;48.116;11.580;2022-10-28T14:33:28;96129.00;;;28.70
14023;BMP180;7086;48.116;11.580;2022-10-28T14:36:21;96124.00;;;28.70
14023;BMP180;7086;48.116;11.580;2022-10-28T14:39:25;96108.00;;;28.60
14023;BMP180;7086;48.116;11.580;2022-10-28T14:42:21;96123.00;;;28.60
14023;BMP180;7086;48.116;11.580;2022-10-28T14:45:30;96087.00;;;28.50
14023;BMP180;7086;48.116;11.580;2022-10-28T14:48:29;96066.00;;;28.40
14023;BMP180;7086;48.116;11.580;2022-10-28T14:51:06;96114.00;;;28.40
14023;BMP180;7086;48.116;11.580;2022-10-28T14:53:41;96122.00;;;28.30
14023;BMP180;7086;48.116;11.580;2022-10-28T14:56:22;96061.00;;;28.30
14023;BMP180;7086;48.116;11.580;2022-10-28T14:58:52;96125.00;;;28.20
14023;BMP180;7086;48.116;11.580;2022-10-28T15:01:25;96072.00;;;27.90
14023;BMP180;7086;48.116;11.580;2022-10-28T15:04:00;96118.00;;;27.90
14023;BMP180;7086;48.116;11.580;2022-10-28T15:06:33;96133.00;;;28.00
14023;BMP180;7086;48.116;11.580;2022-10-28T15:09:26;96176.00;;;27.80
14023;BMP180;7086;48.116;11.580;2022-10-28T15:11:58;96137.00;;;27.80
14023;BMP180;7086;48.116;11.580;2022-10-28T15:14:33;96043.00;;;27.80
14023;BMP180;7086;48.116;11.580;2022-10-28T15:17:14;96091.00;;;27.70
14023;BMP180;7086;48.116;11.580;2022-10-28T15:19:48;96105.00;;;27.60
14023;BMP180;7086;48.116;11.580;2022-10-28T15:22:20;96105.00;;;27.60
14023;BMP180;7086;48.116;11.580;2022-10-28T15:24:57;96073.00;;;27.30
14023;BMP180;7086;48.116;11.580;2022-10-28T15:27:40;96081.00;;;27.40
14023;BMP180;7086;48.116;11.580;2022-10-28T15:30:15;96048.00;;;27.40
14023;BMP180;7086;48.116;11.580;2022-10-28T15:32:44;96116.00;;;27.30
14023;BMP180;7086;48.116;11.580;2022-10-28T15:35:36;96127.00;;;27.30
14023;BMP180;7086;48.116;11.580;2022-10-28T15:38:33;96117.00;;;27.20
14023;BMP180;7086;48.116;11.580;2022-10-28T15:41:45;96092.00;;;27.10
14023;BMP180;7086;48.116;11.580;2022-10-28T15:44:33;96111.00;;;27.00
14023;BMP180;7086;48.116;11.580;2022-10-28T15:49:43;96089.00;;;26.50
14023;BMP180;7086;48.116;11.580;2022-10-28T15:52:38;96116.00;;;26.70
14023;BMP180;7086;48.116;11.580;2022-10-28T15:55:30;96115.00;;;26.50
14023;BMP180;7086;48.116;11.580;2022-10-28T15:58:02;96112.00;;;26.50
14023;BMP180;7086;48.116;11.580;2022-10-28T16:00:49;96113.00;;;26.40
14023;BMP180;7086;48.116;11.580;2022-10-28T16:03:26;96070.00;;;26.20
14023;BMP180;7086;48.116;11.580;2022-10-28T16:05:56;96116.00;;;26.20
14023;BMP180;7086;48.116;11.580;2022-10-28T16:08:27;96073.00;;;26.10
14023;BMP180;7086;48.116;11.580;2022-10-28T16:11:00;96135.00;;;26.00
14023;BMP180;7086;48.116;11.580;2022-10-28T16:13:34;96140.00;;;26.00
14023;BMP180;7086;48.116;11.580;2022-10-28T16:16:09;96114.00;;;25.90
14023;BMP180;7086;48.116;11.580;2022-10-28T16:18:45;96054.00;;;25.80
14023;BMP180;7086;48.116;11.580;2022-10-28T16:21:19;96107.00;;;25.70
14023;BMP180;7086;48.116;11.580;2022-10-28T16:23:51;96080.00;;;25.60
14023;BMP180;7086;48.116;11.580;2022-10-28T16:26:28;96133.00;;;25.40
14023;BMP180;7086;48.116;11.580;2022-10-28T16:28:58;96104.00;;;25.50
14023;BMP180;7086;48.116;11.580;2022-10-28T16:31:30;96121.00;;;25.40
14023;BMP180;7086;48.116;11.580;2022-10-28T16:34:03;96105.00;;;25.30
14023;BMP180;7086;48.116;11.580;2022-10-28T16:36:35;96113.00;;;25.30
14023;BMP180;7086;48.116;11.580;2022-10-28T16:39:10;96088.00;;;25.20
14023;BMP180;7086;48.116;11.580;2022-10-28T16:41:46;96113.00;;;25.10
14023;BMP180;7086;48.116;11.580;2022-10-28T16:44:17;96095.00;;;25.00
14023;BMP180;7086;48.116;11.580;2022-10-28T16:46:50;96071.00;;;25.00
14023;BMP180;7086;48.116;11.580;2022-10-28T16:49:19;96121.00;;;24.90
14023;BMP180;7086;48.116;11.580;2022-10-28T16:51:51;96124.00;;;24.80
14023;BMP180;7086;48.116;11.580;2022-10-28T16:54:21;96055.00;;;24.80
14023;BMP180;7086;48.116;11.580;2022-10-28T16:56:50;96113.00;;;24.70
14023;BMP180;7086;48.116;11.580;2022-10-28T16:59:18;96112.00;;;24.70
14023;BMP180;7086;48.116;11.580;2022-10-28T17:04:33;96054.00;;;24.50
14023;BMP180;7086;48.116;11.580;2022-10-28T17:07:03;96107.00;;;24.50
14023;BMP180;7086;48.116;11.580;2022-10-28T17:09:46;96122.00;;;24.40
14023;BMP180;7086;48.116;11.580;2022-10-28T17:12:17;96036.00;;;24.40
14023;BMP180;7086;48.116;11.580;2022-10-28T17:14:46;96095.00;;;24.30
14023;BMP180;7086;48.116;11.580;2022-10-28T17:17:15;96115.00;;;24.30
14023;BMP180;7086;48.116;11.580;2022-10-28T17:19:57;96103.00;;;24.20
14023;BMP180;7086;48.116;11.580;2022-10-28T17:22:26;96127.00;;;24.10
14023;BMP180;7086;48.116;11.580;2022-10-28T17:25:04;96105.00;;;24.10
14023;BMP180;7086;48.116;11.580;2022-10-28T17:27:32;96127.00;;;24.00
14023;BMP180;7086;48.116;11.580;2022-10-28T17:30:01;96130.00;;;23.90
14023;BMP180;7086;48.116;11.580;2022-10-28T17:32:31;96131.00;;;23.90
14023;BMP180;7086;48.116;11.580;2022-10-28T17:35:02;96057.00;;;23.50
14023;BMP180;7086;48.116;11.580;2022-10-28T17:37:33;96062.00;;;23.70
14023;BMP180;7086;48.116;11.580;2022-10-28T17:40:01;96123.00;;;23.60
14023;BMP180;7086;48.116;11.580;2022-10-28T17:42:36;96130.00;;;23.60
14023;BMP180;7086;48.116;11.580;2022-10-28T17:45:06;96134.00;;;23.50
14023;BMP180;7086;48.116;11.580;2022-10-28T17:47:35;96129.00;;;23.50
14023;BMP180;7086;48.116;11.580;2022-10-28T17:50:06;96126.00;;;23.40
14023;BMP180;7086;48.116;11.580;2022-10-28T17:52:34;96130.00;;;23.30
14023;BMP180;7086;48.116;11.580;2022-10-28T17:55:02;96126.00;;;23.30
14023;BMP180;7086;48.116;11.580;2022-10-28T17:57:30;96131.00;;;23.20
14023;BMP180;7086;48.116;11.580;2022-10-28T17:59:58;96127.00;;;23.10
14023;BMP180;7086;48.116;11.580;2022-10-28T18:02:26;96127.00;;;23.00
14023;BMP180;7086;48.116;11.580;2022-10-28T18:04:59;96130.00;;;22.90
14023;BMP180;7086;48.116;11.580;2022-10-28T18:08:04;96022.00;;;22.90
14023;BMP180;7086;48.116;11.580;2022-10-28T18:10:32;96129.00;;;22.80
14023;BMP180;7086;48.116;11.580;2022-10-28T18:13:03;96138.00;;;22.80
14023;BMP180;7086;48.116;11.580;2022-10-28T18:15:36;96138.00;;;22.70
14023;BMP180;7086;48.116;11.580;2022-10-28T18:18:07;96026.00;;;22.70
14023;BMP180;7086;48.116;11.580;2022-10-28T18:20:54;96142.00;;;22.70
14023;BMP180;7086;48.116;11.580;2022-10-28T18:23:30;96063.00;;;22.60
14023;BMP180;7086;48.116;11.580;2022-10-28T18:26:13;96147.00;;;22.30
14023;BMP180;7086;48.116;11.580;2022-10-28T18:28:43;96151.00;;;22.40
14023;BMP180;7086;48.116;11.580;2022-10-28T18:31:32;96068.00;;;22.50
14023;BMP180;7086;48.116;11.580;2022-10-28T18:34:02;96095.00;;;22.50
14023;BMP180;7086;48.116;11.580;2022-10-28T18:36:32;96169.00;;;22.20
14023;BMP180;7086;48.116;11.580;2022-10-28T18:39:37;96134.00;;;22.40
14023;BMP180;7086;48.116;11.580;2022-10-28T18:42:20;96131.00;;;22.30
14023;BMP180;7086;48.116;11.580;2022-10-28T18:44:55;96133.00;;;22.20
14023;BMP180;7086;48.116;11.580;2022-10-28T18:47:26;96140.00;;;22.20
14023;BMP180;7086;48.116;11.580;2022-10-28T18:50:03;96143.00;;;22.20
14023;BMP180;7086;48.116;11.580;2022-10-28T18:52:53;96025.00;;;22.10
14023;BMP180;7086;48.116;11.580;2022-10-28T18:55:23;96150.00;;;22.00
14023;BMP180;7086;48.116;11.580;2022-10-28T18:57:51;96135.00;;;22.10
14023;BMP180;7086;48.116;11.580;2022-10-28T19:00:21;96127.00;;;22.10
14023;BMP180;7086;48.116;11.580;2022-10-28T19:03:03;96133.00;;;22.00
14023;BMP180;7086;48.116;11.580;2022-10-28T19:05:33;96130.00;;;22.00
14023;BMP180;7086;48.116;11.580;2022-10-28T19:08:04;96134.00;;;22.00
14023;BMP180;7086;48.116;11.580;2022-10-28T19:11:06;96086.00;;;22.00
14023;BMP180;7086;48.116;11.580;2022-10-28T19:13:42;96070.00;;;21.90
14023;BMP180;7086;48.116;11.580;2022-10-28T19:16:15;96071.00;;;21.90
14023;BMP180;7086;48.116;11.580;2022-10-28T19:18:59;96133.00;;;21.90
14023;BMP180;7086;48.116;11.580;2022-10-28T19:21:42;96128.00;;;21.90
14023;BMP180;7086;48.116;11.580;2022-10-28T19:24:16;96125.00;;;21.80
14023;BMP180;7086;48.116;11.580;2022-10-28T19:26:55;96113.00;;;21.80
14023;BMP180;7086;48.116;11.580;2022-10-28T19:29:44;96140.00;;;21.60
14023;BMP180;7086;48.116;11.580;2022-10-28T19:32:31;96096.00;;;21.80
14023;BMP180;7086;48.116;11.580;2022-10-28T19:35:06;96142.00;;;21.90
14023;BMP180;7086;48.116;11.580;2022-10-28T19:37:35;96143.00;;;21.90
14023;BMP180;7086;48.116;11.580;2022-10-28T19:40:16;96143.00;;;21.90
14023;BMP180;7086;48.116;11.580;2022-10-28T19:42:54;96089.00;;;21.90
14023;BMP180;7086;48.116;11.580;2022-10-28T19:45:24;96156.00;;;21.90
14023;BMP180;7086;48.116;11.580;2022-10-28T19:48:02;96171.00;;;21.90
14023;BMP180;7086;48.116;11.580;2022-10-28T19:50:32;96165.00;;;21.80
14023;BMP180;7086;48.116;11.580;2022-10-28T19:53:03;96056.00;;;21.80
14023;BMP180;7086;48.116;11.580;2022-10-28T19:55:43;96153.00;;;21.80
14023;BMP180;7086;48.116;11.580;2022-10-28T19:58:28;96179.00;;;21.80
14023;BMP180;7086;48.116;11.580;2022-10-28T20:01:05;96063.00;;;21.80
14023;BMP180;7086;48.116;11.580;2022-10-28T20:03:38;96157.00;;;21.80